الصفحة الرئيسية
METAR-TAF:

METAR-TAF

مطار :

كيرنز, أستراليا

دائرة عرض: 16-53S, خط طول: 145-45E, ارتفاع: 3 متر

مراقبة الطقس الحالي

تاريخ ووقت الإصدار 17 دقيقة قبل الساعة 02:00UTC
ريح 9 عقدة من الشرق/الجنوب الشرقي
درجة الحرارة 25°درجة مئوية
الرطوبة 44%
ضغط 1016 hPa
الرؤية 10 كم أو أكثر

METAR: YBCS 190200Z AUTO 12009KT 9999 // NCD 25/12 Q1016

زمن: 12:17 (02:17 UTC)

توقعات

تاريخ ووقت الإصدار 3ساعات و 14 دقيقة قبل الساعة 23:03UTC
التوقعات صالحة من19 الساعة 00 UTC إلى 20 الساعة 00 UTC
ريح 12 عقدة من الجنوب/الجنوب الشرقي
الرؤية 10 كم أو أكثر
غيوم مفككة على ارتفاع 5000 قدم
من 19 الساعة 0100 UTC
ريح 10 عقدة من الشرق/الجنوب الشرقي
الرؤية 10 كم أو أكثر
الغيوم لا تقل 1500 م ولا وجود لمزنة ركامية السحاب الأسود
من 19 الساعة 0800 UTC
ريح 6 عقدة من الجنوب
الرؤية 10 كم أو أكثر
الغيوم لا تقل 1500 م ولا وجود لمزنة ركامية السحاب الأسود
من 19 الساعة 1400 UTC
ريح 6 عقدة من الجنوب
الرؤية 10 كم أو أكثر
الغيوم لا تقل 1500 م ولا وجود لمزنة ركامية السحاب الأسود

TAF: YBCS 182303Z 1900/2000 16012KT 9999 BKN050 FM190100 12010KT CAVOK FM190800 17006KT CAVOK FM191400 19006KT CAVOK

أرصاد الطقس والتوقعات من أكثر من 4000 مطار (تقارير الطقس للمطار METAR والتنبؤ بالطقس بالمطارTAF).

المحطات المتاحة هي النقط الصفراء والحمراء على الخريطة.

حرك المؤشر فوق النقطة لمعرفة اسم المحطة.

ثم انقر لمعرفة أرصاد وتوقعات الطقس.

لتغيير الخارطة: اضغط على الأزرار الخضراء مع رمز الصليب الأسود للتكبير. على الزر الأخضر مع شرطة للتصغير، أو على الأسهم الخضراء للخرائط المجاورة.


METAR-TAF: